Ana Sayfa
METAR-TAF:

METAR-TAF

Havaalanları :

Bujumbura, Burundi

Enlem: 03-19S, Boylam: 029-19E, yükseklik: 782 m

METAR: eksik

Saat: 06:57 (04:57 UTC)

Tahmin

Rapor saat 23:00 UTC de 5 saat ve 57 dakika önce yapıldı.
Ayın 15'si saat 00 UTC'den ayın 16'si saat 06 UTC'ye kadar geçerli Tahmin
Rüzgar kuzey/kuzeydoğudan 4 kt
Görüş mesafesi 10 km veya daha fazla
3000 ft yükseklikte az bulutlu
Dönüşüyor
ayın 15'si saat 03 UTC'den ayın 15'si saat 05 UTC'ye kadar
Rüzgar kuzeydan kt
Toz Pusu
Dönüşüyor
ayın 15'si saat 08 UTC'den ayın 15'si saat 10 UTC'ye kadar
Rüzgar güneydan 12 kt ve 26 kt'a kadar ani rüzgarlar
Görüş mesafesi: 7000 m
3500 ft yükseklikte az bulutlu
Dönüşüyor
ayın 15'si saat 17 UTC'den ayın 15'si saat 18 UTC'ye kadar
Rüzgar güneydan 5 kt
Görüş mesafesi 10 km veya daha fazla
1500 m altında bulut yok ve kümülonimbus yok

TAF: HBBA 142300Z 1500/1606 03004KT 9999 FEW030 BECMG 1503/1505 00000KT HZ NSC BECMG 1508/1510 18012G26KT 7000 FEW035 BECMG 1517/1518 18005KT CAVOK

4.000'den fazla havaalanı için hava durumu gözlemleri ve tahminleri (METAR ve TAF raporları).

Kullanılabilir istasyonlar harita üzerinde sarı ve kırmızı noktalarla gösterilir.

İstasyonun adını görmek için fareyi noktanın üzerinde gezdirin.

Sonrasında hava gözlem ve tahminlerini görmek için tıklayın.

Haritayı değiştirmek için: yaklaştırmak için siyah artı işaretli yeşil düğmeye ve uzaklaştırmak için de eksi işaretli düğmeye hızla tıklayın; bitişik haritalar için yeşil okları kullanın.


METAR-TAF: